Time;durP1;ratioP1;P1;durP2;ratioP2;P2;SDS_P1;SDS_P2;PMS_P1;PMS_P2;Temp;Humidity;BMP_temperature;BMP_pressure;BME280_temperature;BME280_humidity;BME280_pressure;Samples;Min_cycle;Max_cycle;Signal;HPM_P1;HPM_P2
2023/10/29 00:03:48;;;;;;;13.10;3.97;;;;;10.00;95178.00;;;;8284753;28;20282;-68
2023/10/29 00:07:53;;;;;;;4.70;3.88;;;;;10.00;95191.00;;;;8283241;28;20195;-68
2023/10/29 00:11:57;;;;;;;12.55;5.00;;;;;9.90;95193.00;;;;8282623;28;20297;-68
2023/10/29 00:16:00;;;;;;;11.70;4.22;;;;;9.90;95175.00;;;;8282381;28;20264;-68
2023/10/29 00:20:06;;;;;;;9.02;3.95;;;;;9.90;95176.00;;;;8283904;28;20284;-68
2023/10/29 00:24:09;;;;;;;10.50;4.28;;;;;9.90;95184.00;;;;8285299;28;20264;-68
2023/10/29 00:28:14;;;;;;;10.82;4.45;;;;;9.90;95174.00;;;;8282005;28;20727;-68
2023/10/29 00:32:18;;;;;;;8.07;4.85;;;;;9.90;95176.00;;;;8281361;28;20308;-68
2023/10/29 00:36:22;;;;;;;15.18;7.20;;;;;10.00;95184.00;;;;8278997;28;20323;-68
2023/10/29 00:40:30;;;;;;;9.60;4.95;;;;;10.00;95191.00;;;;8283590;28;20207;-68
2023/10/29 00:44:34;;;;;;;10.75;4.72;;;;;10.00;95204.00;;;;8275092;28;20623;-68
2023/10/29 00:48:38;;;;;;;10.85;4.72;;;;;10.00;95201.00;;;;8284554;28;20198;-68
2023/10/29 00:52:42;;;;;;;11.50;4.35;;;;;10.10;95208.00;;;;8282129;28;20656;-68
2023/10/29 00:56:45;;;;;;;11.85;4.80;;;;;10.10;95208.00;;;;8283722;28;20269;-68
2023/10/29 01:00:50;;;;;;;12.00;4.63;;;;;10.20;95196.00;;;;8277592;28;20194;-68
2023/10/29 01:04:53;;;;;;;7.90;4.30;;;;;10.10;95207.00;;;;8280334;28;20222;-68
2023/10/29 01:08:56;;;;;;;14.38;4.88;;;;;10.10;95198.00;;;;8276463;28;20674;-68
2023/10/29 01:12:59;;;;;;;10.35;4.80;;;;;10.10;95191.00;;;;8282985;28;20842;-68
2023/10/29 01:17:04;;;;;;;10.50;4.90;;;;;10.10;95192.00;;;;8280894;28;20239;-68
2023/10/29 01:21:08;;;;;;;9.40;4.75;;;;;10.10;95183.00;;;;8281393;28;20206;-68
2023/10/29 01:25:12;;;;;;;6.43;4.75;;;;;10.20;95178.00;;;;8275643;28;20316;-68
2023/10/29 01:29:16;;;;;;;10.38;4.47;;;;;10.10;95168.00;;;;8279817;28;20640;-68
2023/10/29 01:33:20;;;;;;;9.25;4.88;;;;;10.10;95174.00;;;;8280480;28;20456;-68
2023/10/29 01:37:24;;;;;;;10.00;4.53;;;;;10.00;95176.00;;;;8280012;28;20237;-68
2023/10/29 01:41:27;;;;;;;17.05;5.38;;;;;9.90;95192.00;;;;8272874;28;20819;-68
2023/10/29 01:45:30;;;;;;;9.48;4.78;;;;;9.90;95181.00;;;;8277651;28;20204;-69
2023/10/29 01:49:35;;;;;;;10.02;4.95;;;;;9.90;95185.00;;;;8280362;28;20198;-68
2023/10/29 01:53:38;;;;;;;7.47;4.30;;;;;9.90;95190.00;;;;8279858;28;20567;-68
2023/10/29 01:57:41;;;;;;;10.98;4.57;;;;;9.90;95182.00;;;;8279638;28;20323;-69
2023/10/29 02:01:45;;;;;;;13.15;4.50;;;;;10.00;95182.00;;;;8285826;28;20770;-68
2023/10/29 02:05:49;;;;;;;9.20;4.55;;;;;10.00;95171.00;;;;8286470;28;20337;-68
2023/10/29 02:09:52;;;;;;;11.18;5.20;;;;;10.00;95170.00;;;;8287349;28;20199;-67
2023/10/29 02:13:55;;;;;;;9.30;4.35;;;;;10.00;95158.00;;;;8286686;28;20213;-67
2023/10/29 02:17:58;;;;;;;10.70;4.30;;;;;9.90;95147.00;;;;8285813;28;20229;-68
2023/10/29 02:22:03;;;;;;;10.13;4.40;;;;;9.90;95144.00;;;;8286952;28;20214;-67
2023/10/29 02:26:07;;;;;;;5.18;4.30;;;;;9.80;95143.00;;;;8287551;28;20500;-67
2023/10/29 02:30:12;;;;;;;9.07;4.30;;;;;9.80;95139.00;;;;8286016;28;20233;-67
2023/10/29 02:34:15;;;;;;;13.27;4.70;;;;;9.70;95140.00;;;;8288799;28;20198;-67
2023/10/29 02:38:19;;;;;;;8.82;4.90;;;;;9.70;95134.00;;;;8286791;28;20232;-68
2023/10/29 02:42:22;;;;;;;8.95;4.50;;;;;9.70;95140.00;;;;8288937;28;20219;-67
2023/10/29 02:46:25;;;;;;;7.07;4.43;;;;;9.70;95143.00;;;;8287280;28;20204;-68
2023/10/29 02:50:29;;;;;;;10.48;4.25;;;;;9.70;95141.00;;;;8285950;28;20289;-68
2023/10/29 02:54:33;;;;;;;7.45;4.63;;;;;9.70;95149.00;;;;8283985;28;20737;-67
2023/10/29 02:58:37;;;;;;;9.18;4.20;;;;;9.60;95163.00;;;;8286920;28;20727;-67
2023/10/29 03:02:40;;;;;;;8.80;4.32;;;;;9.60;95155.00;;;;8293666;23;20241;-68
2023/10/29 03:06:43;;;;;;;7.75;4.13;;;;;9.50;95153.00;;;;8240578;28;20817;-68
2023/10/29 03:10:49;;;;;;;8.68;4.22;;;;;9.50;95157.00;;;;8252580;28;20199;-68
2023/10/29 03:14:52;;;;;;;8.35;3.95;;;;;9.50;95159.00;;;;8254697;28;20983;-67
2023/10/29 03:18:55;;;;;;;6.57;4.13;;;;;9.40;95158.00;;;;8249372;28;20235;-67
2023/10/29 03:22:58;;;;;;;6.85;4.05;;;;;9.40;95153.00;;;;8251868;28;20226;-67
2023/10/29 03:27:03;;;;;;;11.57;4.57;;;;;9.30;95144.00;;;;8255895;28;20787;-68
2023/10/29 03:31:11;;;;;;;7.97;4.43;;;;;9.30;95139.00;;;;8248752;28;20258;-68
2023/10/29 03:35:15;;;;;;;11.27;4.53;;;;;9.30;95127.00;;;;8253377;28;20333;-67
2023/10/29 03:39:18;;;;;;;6.85;4.03;;;;;9.40;95129.00;;;;8253056;28;20754;-68
2023/10/29 03:43:23;;;;;;;5.68;3.60;;;;;9.50;95131.00;;;;8252586;28;20234;-67
2023/10/29 03:47:26;;;;;;;5.43;4.10;;;;;9.50;95140.00;;;;8252255;28;20216;-68
2023/10/29 03:51:30;;;;;;;5.43;3.85;;;;;9.40;95140.00;;;;8251235;28;20568;-67
2023/10/29 03:55:33;;;;;;;9.10;3.97;;;;;9.30;95136.00;;;;8253440;28;20199;-67
2023/10/29 03:59:37;;;;;;;10.93;4.45;;;;;9.30;95134.00;;;;8250248;28;20733;-68
2023/10/29 04:03:41;;;;;;;10.63;4.45;;;;;9.20;95130.00;;;;8252219;28;20230;-68
2023/10/29 04:07:44;;;;;;;6.43;3.67;;;;;9.20;95118.00;;;;8253516;28;20821;-69
2023/10/29 04:11:47;;;;;;;6.70;3.70;;;;;9.10;95117.00;;;;8251866;28;20207;-69
2023/10/29 04:15:51;;;;;;;11.32;3.88;;;;;9.10;95106.00;;;;8248447;28;20199;-69
2023/10/29 04:19:55;;;;;;;10.20;4.13;;;;;9.00;95101.00;;;;8251693;28;20240;-68
2023/10/29 04:23:58;;;;;;;8.80;3.95;;;;;9.00;95105.00;;;;8258717;28;20664;-69
2023/10/29 04:28:01;;;;;;;9.68;3.67;;;;;8.90;95122.00;;;;8254611;28;20249;-68
2023/10/29 04:32:06;;;;;;;8.45;3.63;;;;;8.90;95119.00;;;;8248976;28;20474;-69
2023/10/29 04:36:09;;;;;;;8.20;3.63;;;;;8.80;95125.00;;;;8251333;28;20207;-68
2023/10/29 04:40:12;;;;;;;7.60;3.67;;;;;8.80;95109.00;;;;8255991;28;20231;-70
2023/10/29 04:44:16;;;;;;;6.90;3.95;;;;;8.70;95098.00;;;;8253134;28;20202;-68
2023/10/29 04:48:22;;;;;;;7.70;4.05;;;;;8.70;95100.00;;;;8255848;28;20203;-69
2023/10/29 04:52:25;;;;;;;5.65;3.50;;;;;8.70;95101.00;;;;8255362;28;20206;-69
2023/10/29 04:56:28;;;;;;;6.67;3.27;;;;;8.70;95099.00;;;;8254729;28;20206;-68
2023/10/29 05:00:31;;;;;;;9.30;4.57;;;;;8.60;95103.00;;;;8250144;28;20199;-69
2023/10/29 05:04:36;;;;;;;8.60;3.65;;;;;8.60;95104.00;;;;8251484;28;20237;-69
2023/10/29 05:08:39;;;;;;;7.57;3.38;;;;;8.60;95106.00;;;;8246864;28;20206;-69
2023/10/29 05:12:42;;;;;;;5.25;4.43;;;;;8.60;95102.00;;;;8250204;28;20202;-68
2023/10/29 05:16:45;;;;;;;4.27;3.47;;;;;8.60;95105.00;;;;8246815;28;20238;-68
2023/10/29 05:20:50;;;;;;;10.13;4.43;;;;;8.50;95089.00;;;;8249333;28;20194;-69
2023/10/29 05:24:53;;;;;;;8.50;3.60;;;;;8.50;95082.00;;;;8251521;28;20597;-68
2023/10/29 05:28:56;;;;;;;9.10;3.78;;;;;8.40;95081.00;;;;8247070;28;20225;-68
2023/10/29 05:32:59;;;;;;;5.85;3.60;;;;;8.40;95070.00;;;;8244577;28;20271;-68
2023/10/29 05:37:05;;;;;;;7.10;3.50;;;;;8.40;95075.00;;;;8249175;28;20257;-69
2023/10/29 05:41:09;;;;;;;9.93;4.10;;;;;8.40;95080.00;;;;8246886;28;20324;-69
2023/10/29 05:45:12;;;;;;;5.47;3.33;;;;;8.30;95086.00;;;;8251069;28;20206;-68
2023/10/29 05:49:15;;;;;;;8.23;3.42;;;;;8.40;95088.00;;;;8249248;28;20199;-69
2023/10/29 05:53:19;;;;;;;7.80;3.88;;;;;8.30;95083.00;;;;8243444;28;20230;-68
2023/10/29 05:57:22;;;;;;;9.68;3.78;;;;;8.30;95081.00;;;;8248925;28;20648;-69
2023/10/29 06:01:25;;;;;;;6.13;3.47;;;;;8.40;95080.00;;;;8248718;28;20378;-69
2023/10/29 06:05:29;;;;;;;7.53;3.72;;;;;8.30;95083.00;;;;8243567;28;20207;-68
2023/10/29 06:09:33;;;;;;;7.20;3.77;;;;;8.30;95078.00;;;;8247931;28;20202;-68
2023/10/29 06:13:36;;;;;;;4.63;3.13;;;;;8.30;95082.00;;;;8250109;28;20195;-69
2023/10/29 06:17:41;;;;;;;9.75;3.30;;;;;8.30;95089.00;;;;8248555;28;20258;-68
2023/10/29 06:21:45;;;;;;;10.40;3.87;;;;;8.30;95088.00;;;;8252130;28;20906;-68
2023/10/29 06:25:49;;;;;;;7.72;3.53;;;;;8.30;95082.00;;;;8244776;28;20210;-68
2023/10/29 06:29:52;;;;;;;5.87;3.20;;;;;8.40;95095.00;;;;8251132;28;20201;-68
2023/10/29 06:33:55;;;;;;;7.77;3.50;;;;;8.40;95099.00;;;;8234234;28;20222;-68
2023/10/29 06:37:59;;;;;;;7.38;3.85;;;;;8.50;95086.00;;;;8244256;28;20265;-68
2023/10/29 06:42:03;;;;;;;5.53;3.73;;;;;8.60;95089.00;;;;8241115;28;20205;-68
2023/10/29 06:46:06;;;;;;;7.43;4.43;;;;;8.60;95096.00;;;;8246899;28;20615;-68
2023/10/29 06:50:10;;;;;;;10.00;4.20;;;;;8.70;95093.00;;;;8247638;28;20325;-67
2023/10/29 06:54:13;;;;;;;10.68;4.38;;;;;8.80;95092.00;;;;8249272;28;20290;-68
2023/10/29 06:58:18;;;;;;;8.73;3.50;;;;;8.90;95107.00;;;;8249398;28;20313;-67
2023/10/29 07:02:21;;;;;;;7.35;4.50;;;;;9.10;95116.00;;;;8241324;28;20634;-68
2023/10/29 07:06:24;;;;;;;4.28;3.88;;;;;9.20;95125.00;;;;8266893;28;20231;-69
2023/10/29 07:10:27;;;;;;;6.28;3.80;;;;;9.40;95132.00;;;;8268565;28;20716;-68
2023/10/29 07:14:32;;;;;;;5.70;3.83;;;;;9.60;95135.00;;;;8269172;28;20199;-70
2023/10/29 07:18:36;;;;;;;4.45;3.35;;;;;9.80;95137.00;;;;8269557;28;20223;-70
2023/10/29 07:22:39;;;;;;;5.07;3.42;;;;;10.00;95141.00;;;;8269948;28;20197;-69
2023/10/29 07:26:42;;;;;;;5.90;3.35;;;;;10.00;95148.00;;;;8265876;28;20194;-69
2023/10/29 07:30:48;;;;;;;6.85;4.35;;;;;9.90;95136.00;;;;8269589;28;20629;-70
2023/10/29 07:34:51;;;;;;;4.43;3.42;;;;;9.90;95120.00;;;;8270083;28;20375;-69
2023/10/29 07:38:54;;;;;;;7.22;3.65;;;;;9.90;95119.00;;;;8268170;28;20226;-69
2023/10/29 07:42:57;;;;;;;6.05;3.70;;;;;10.00;95116.00;;;;8270196;28;20196;-69
2023/10/29 07:47:07;;;;;;;7.55;3.97;;;;;10.00;95130.00;;;;8269200;28;20233;-69
2023/10/29 07:51:11;;;;;;;6.72;3.33;;;;;10.10;95121.00;;;;8270295;28;20584;-69
2023/10/29 07:55:14;;;;;;;5.32;4.22;;;;;10.10;95113.00;;;;8269982;28;20290;-70
2023/10/29 07:59:17;;;;;;;7.15;4.03;;;;;10.20;95105.00;;;;8268000;28;20229;-70
2023/10/29 08:03:21;;;;;;;5.65;3.42;;;;;10.40;95099.00;;;;8270305;28;20274;-70
2023/10/29 08:07:25;;;;;;;8.38;3.47;;;;;10.50;95121.00;;;;8269179;28;20198;-69
2023/10/29 08:11:28;;;;;;;7.65;3.30;;;;;10.60;95118.00;;;;8269819;28;20285;-70
2023/10/29 08:15:31;;;;;;;10.23;4.45;;;;;10.70;95121.00;;;;8268383;28;20244;-71
2023/10/29 08:19:35;;;;;;;6.28;3.20;;;;;10.90;95116.00;;;;8269205;28;20643;-69
2023/10/29 08:23:38;;;;;;;4.72;2.90;;;;;11.00;95106.00;;;;8268505;28;20619;-69
2023/10/29 08:27:42;;;;;;;4.32;3.05;;;;;11.10;95111.00;;;;8267837;28;20199;-69
2023/10/29 08:31:45;;;;;;;4.53;2.70;;;;;11.30;95111.00;;;;8268790;28;20481;-69
2023/10/29 08:35:50;;;;;;;6.85;2.92;;;;;11.50;95121.00;;;;8268548;28;20198;-69
2023/10/29 08:39:57;;;;;;;3.20;2.67;;;;;11.70;95127.00;;;;8269108;28;20659;-68
2023/10/29 08:44:00;;;;;;;3.45;2.53;;;;;11.90;95124.00;;;;8269150;28;20649;-69
2023/10/29 08:48:04;;;;;;;3.10;2.55;;;;;12.10;95121.00;;;;8267543;28;20694;-68
2023/10/29 08:52:08;;;;;;;3.00;2.35;;;;;12.20;95120.00;;;;8267214;28;20206;-71
2023/10/29 08:56:11;;;;;;;6.50;2.80;;;;;12.40;95134.00;;;;8265954;28;20210;-69
2023/10/29 09:00:15;;;;;;;3.92;2.47;;;;;12.50;95151.00;;;;8267316;28;20262;-70
2023/10/29 09:04:20;;;;;;;2.75;2.20;;;;;12.70;95154.00;;;;8266080;28;20225;-70
2023/10/29 09:08:24;;;;;;;2.38;2.05;;;;;12.80;95151.00;;;;8264678;28;20249;-70
2023/10/29 09:12:28;;;;;;;2.83;2.05;;;;;13.10;95149.00;;;;8264506;28;20297;-70
2023/10/29 09:16:31;;;;;;;3.60;2.22;;;;;13.50;95132.00;;;;8264866;28;20277;-70
2023/10/29 09:20:34;;;;;;;2.40;2.20;;;;;13.70;95139.00;;;;8265411;28;20277;-70
2023/10/29 09:24:39;;;;;;;2.20;2.00;;;;;14.10;95133.00;;;;8264747;28;20691;-70
2023/10/29 09:28:42;;;;;;;1.83;1.70;;;;;14.40;95146.00;;;;8265721;28;20272;-70
2023/10/29 09:32:46;;;;;;;3.70;2.22;;;;;14.40;95154.00;;;;8262071;28;20191;-68
2023/10/29 09:36:49;;;;;;;2.50;1.70;;;;;14.50;95158.00;;;;8264650;28;20509;-70
2023/10/29 09:40:53;;;;;;;4.05;2.10;;;;;14.50;95181.00;;;;8265078;28;20258;-68
2023/10/29 09:45:00;;;;;;;2.78;1.70;;;;;14.50;95195.00;;;;8264852;28;20187;-68
2023/10/29 09:49:04;;;;;;;2.20;2.00;;;;;14.60;95186.00;;;;8265377;28;20278;-68
2023/10/29 09:53:08;;;;;;;2.50;1.75;;;;;14.70;95171.00;;;;8264793;28;20635;-65
2023/10/29 09:57:13;;;;;;;2.20;1.50;;;;;14.70;95178.00;;;;8264857;28;20245;-66
2023/10/29 10:01:16;;;;;;;7.03;2.00;;;;;14.70;95180.00;;;;8220111;28;1268335;-67
2023/10/29 10:05:20;;;;;;;3.50;2.00;;;;;14.70;95178.00;;;;8266703;28;20183;-67
2023/10/29 10:09:24;;;;;;;3.13;1.48;;;;;14.80;95181.00;;;;8265833;28;20286;-66
2023/10/29 10:13:39;;;;;;;1.80;1.70;;;;;14.80;95185.00;;;;8265975;28;20218;-66
2023/10/29 10:17:47;;;;;;;1.73;1.60;;;;;14.90;95177.00;;;;8266188;28;20532;-67
2023/10/29 10:21:50;;;;;;;2.85;1.65;;;;;15.00;95170.00;;;;8268129;28;20265;-68
2023/10/29 10:25:59;;;;;;;2.08;1.52;;;;;15.20;95163.00;;;;8272219;28;20253;-68
2023/10/29 10:30:04;;;;;;;3.92;1.65;;;;;15.50;95169.00;;;;8271418;28;20206;-68
2023/10/29 10:34:13;;;;;;;1.63;1.52;;;;;15.70;95161.00;;;;8271451;28;20198;-68
2023/10/29 10:38:17;;;;;;;2.10;1.90;;;;;16.00;95165.00;;;;8271158;28;20680;-68
2023/10/29 10:42:25;;;;;;;2.17;1.80;;;;;16.40;95159.00;;;;8271853;28;20313;-68
2023/10/29 10:46:33;;;;;;;1.85;1.40;;;;;16.90;95151.00;;;;8272056;28;20227;-69
2023/10/29 10:50:36;;;;;;;2.45;1.45;;;;;17.30;95149.00;;;;8270975;28;20278;-69
2023/10/29 10:54:42;;;;;;;2.42;1.40;;;;;17.30;95138.00;;;;8271682;28;20199;-69
2023/10/29 10:58:46;;;;;;;1.63;1.52;;;;;17.30;95143.00;;;;8270890;28;20203;-69
2023/10/29 11:02:52;;;;;;;2.95;1.80;;;;;17.40;95147.00;;;;8271704;28;20321;-69
2023/10/29 11:06:56;;;;;;;1.88;1.73;;;;;17.70;95147.00;;;;8270923;28;20270;-69
2023/10/29 11:11:00;;;;;;;3.53;1.75;;;;;17.90;95134.00;;;;8268970;28;20199;-68
2023/10/29 11:15:14;;;;;;;3.88;1.70;;;;;17.90;95141.00;;;;8271249;28;20195;-68
2023/10/29 11:19:39;;;;;;;1.60;1.50;;;;;18.10;95156.00;;;;8270318;28;20218;-67
2023/10/29 11:23:43;;;;;;;1.60;1.50;;;;;18.20;95154.00;;;;8270470;28;20195;-68
2023/10/29 11:27:47;;;;;;;2.45;1.45;;;;;18.30;95166.00;;;;8270265;28;20606;-68
2023/10/29 11:32:23;;;;;;;1.80;1.70;;;;;18.40;95170.00;;;;8270683;28;20245;-68
2023/10/29 11:36:33;;;;;;;4.00;1.85;;;;;18.50;95165.00;;;;8270545;28;20537;-68
2023/10/29 11:40:37;;;;;;;1.77;1.65;;;;;18.70;95153.00;;;;8269749;28;20317;-68
2023/10/29 11:44:40;;;;;;;2.63;1.70;;;;;18.80;95156.00;;;;8269463;28;20289;-69
2023/10/29 11:49:03;;;;;;;3.70;2.00;;;;;19.00;95152.00;;;;8269131;28;20191;-69
2023/10/29 11:53:22;;;;;;;2.72;1.70;;;;;19.10;95154.00;;;;8270109;28;20198;-69
2023/10/29 11:57:25;;;;;;;1.50;1.40;;;;;19.10;95159.00;;;;8269524;28;20281;-68
2023/10/29 12:01:29;;;;;;;6.82;1.77;;;;;19.20;95164.00;;;;8268439;28;20319;-69
2023/10/29 12:05:32;;;;;;;2.92;1.70;;;;;19.20;95156.00;;;;8269464;28;20536;-69
2023/10/29 12:09:37;;;;;;;1.77;1.55;;;;;19.30;95141.00;;;;8268819;28;20198;-69
2023/10/29 12:13:41;;;;;;;2.85;2.00;;;;;19.50;95140.00;;;;8268736;28;20230;-69
2023/10/29 12:17:46;;;;;;;3.25;1.25;;;;;19.70;95134.00;;;;8269444;28;20637;-69
2023/10/29 12:21:53;;;;;;;2.72;1.77;;;;;19.80;95128.00;;;;8267980;28;20322;-69
2023/10/29 12:25:57;;;;;;;3.40;1.90;;;;;19.70;95143.00;;;;8268595;28;20306;-69
2023/10/29 12:30:00;;;;;;;1.60;1.50;;;;;19.70;95138.00;;;;8268539;28;20285;-69
2023/10/29 12:34:04;;;;;;;1.67;1.58;;;;;19.80;95146.00;;;;8268215;28;20197;-69
2023/10/29 12:38:11;;;;;;;2.65;1.63;;;;;19.70;95146.00;;;;8268193;28;20286;-69
2023/10/29 12:42:15;;;;;;;4.82;2.10;;;;;19.70;95132.00;;;;8268365;28;20298;-69
2023/10/29 12:46:21;;;;;;;3.78;1.65;;;;;19.70;95124.00;;;;8267030;28;20274;-69
2023/10/29 12:50:24;;;;;;;1.60;1.50;;;;;19.50;95126.00;;;;8268099;28;20584;-69
2023/10/29 12:54:29;;;;;;;2.30;1.63;;;;;19.40;95131.00;;;;8264550;28;20230;-68
2023/10/29 12:58:33;;;;;;;2.05;1.90;;;;;19.30;95126.00;;;;8265369;28;20245;-68
2023/10/29 13:02:36;;;;;;;1.80;1.67;;;;;19.40;95122.00;;;;8265983;28;20317;-68
2023/10/29 13:06:39;;;;;;;2.58;1.90;;;;;19.40;95112.00;;;;8267133;28;20330;-69
2023/10/29 13:10:46;;;;;;;1.88;1.67;;;;;19.40;95109.00;;;;8267408;28;20199;-68
2023/10/29 13:14:51;;;;;;;3.47;1.92;;;;;19.40;95098.00;;;;8266725;28;20902;-68
2023/10/29 13:18:55;;;;;;;4.22;2.00;;;;;19.40;95101.00;;;;8266796;28;20214;-68
2023/10/29 13:22:58;;;;;;;2.00;1.90;;;;;19.40;95097.00;;;;8266539;28;20316;-68
2023/10/29 13:27:01;;;;;;;2.08;1.95;;;;;19.30;95099.00;;;;8265914;28;20285;-68
2023/10/29 13:31:06;;;;;;;2.67;1.90;;;;;19.30;95103.00;;;;8266351;28;20206;-69
2023/10/29 13:35:10;;;;;;;2.63;1.73;;;;;19.20;95098.00;;;;8267069;28;20226;-70
2023/10/29 13:39:13;;;;;;;2.75;2.10;;;;;19.10;95086.00;;;;8266433;28;20281;-70
2023/10/29 13:43:19;;;;;;;3.20;2.33;;;;;19.00;95077.00;;;;8266492;28;20249;-70
2023/10/29 13:47:24;;;;;;;2.25;2.05;;;;;18.90;95091.00;;;;8264415;28;20201;-70
2023/10/29 13:51:27;;;;;;;2.90;2.05;;;;;18.90;95088.00;;;;8264943;28;20206;-70
2023/10/29 13:55:31;;;;;;;1.98;1.70;;;;;18.80;95078.00;;;;8267518;28;20201;-70
2023/10/29 13:59:34;;;;;;;2.17;1.95;;;;;18.70;95077.00;;;;8273381;28;20199;-70
2023/10/29 14:03:39;;;;;;;4.18;2.40;;;;;18.60;95059.00;;;;8272555;28;20735;-70
2023/10/29 14:07:42;;;;;;;7.28;2.88;;;;;18.50;95070.00;;;;8273068;28;20275;-70
2023/10/29 14:11:46;;;;;;;2.75;2.30;;;;;18.40;95073.00;;;;8272024;28;20230;-70
2023/10/29 14:15:49;;;;;;;3.70;2.20;;;;;18.20;95088.00;;;;8271203;28;20199;-70
2023/10/29 14:19:53;;;;;;;2.40;2.17;;;;;18.20;95081.00;;;;8272013;28;20708;-69
2023/10/29 14:23:57;;;;;;;2.92;2.28;;;;;18.00;95067.00;;;;8272134;28;20648;-68
2023/10/29 14:28:00;;;;;;;2.55;1.98;;;;;17.90;95067.00;;;;8271826;28;20640;-69
2023/10/29 14:32:05;;;;;;;2.40;2.20;;;;;17.90;95069.00;;;;8271465;28;20205;-69
2023/10/29 14:36:10;;;;;;;3.88;1.98;;;;;17.80;95067.00;;;;8271285;28;20222;-69
2023/10/29 14:40:13;;;;;;;4.78;1.95;;;;;17.70;95071.00;;;;8271180;28;20199;-69
2023/10/29 14:44:16;;;;;;;3.03;2.05;;;;;17.60;95068.00;;;;8271556;28;20536;-68
2023/10/29 14:48:20;;;;;;;3.65;1.83;;;;;17.50;95059.00;;;;8267162;28;20282;-69
2023/10/29 14:52:24;;;;;;;3.03;2.25;;;;;17.40;95052.00;;;;8271623;28;20624;-72
2023/10/29 14:56:27;;;;;;;3.50;2.67;;;;;17.30;95047.00;;;;8270673;28;20206;-74
2023/10/29 15:00:30;;;;;;;5.90;2.55;;;;;17.10;95044.00;;;;8270995;28;20683;-74
2023/10/29 15:04:33;;;;;;;2.72;2.20;;;;;16.90;95043.00;;;;8271540;28;20672;-73
2023/10/29 15:08:39;;;;;;;3.83;2.70;;;;;16.80;95040.00;;;;8269378;28;20195;-72
2023/10/29 15:12:43;;;;;;;3.53;2.30;;;;;16.70;95042.00;;;;8271213;28;20667;-74
2023/10/29 15:16:46;;;;;;;7.75;2.97;;;;;16.60;95023.00;;;;8270945;28;20592;-74
2023/10/29 15:20:49;;;;;;;4.70;2.40;;;;;16.50;95020.00;;;;8270437;28;20232;-73
2023/10/29 15:25:06;;;;;;;5.03;2.20;;;;;16.30;95011.00;;;;8270919;28;20183;-73
2023/10/29 15:29:10;;;;;;;9.60;2.60;;;;;16.20;95019.00;;;;8269396;28;20233;-73
2023/10/29 15:33:13;;;;;;;7.05;2.72;;;;;16.20;95026.00;;;;8269868;28;20289;-70
2023/10/29 15:37:16;;;;;;;2.60;2.40;;;;;16.10;95008.00;;;;8267375;28;20199;-69
2023/10/29 15:41:21;;;;;;;7.15;3.42;;;;;16.00;95002.00;;;;8268927;28;20230;-70
2023/10/29 15:45:24;;;;;;;3.10;2.72;;;;;15.90;95001.00;;;;8267050;28;20234;-70
2023/10/29 15:49:27;;;;;;;10.82;5.38;;;;;15.80;94989.00;;;;8269430;28;20230;-71
2023/10/29 15:53:30;;;;;;;22.25;11.30;;;;;15.70;94990.00;;;;8269739;28;20298;-70
2023/10/29 15:57:35;;;;;;;11.95;6.00;;;;;15.50;94980.00;;;;8267140;28;20603;-70
2023/10/29 16:01:39;;;;;;;7.40;4.18;;;;;15.30;94991.00;;;;8268162;28;20865;-68
2023/10/29 16:05:42;;;;;;;70.97;33.92;;;;;15.10;94995.00;;;;8268459;28;20206;-67
2023/10/29 16:09:45;;;;;;;1779.50;752.92;;;;;14.90;94989.00;;;;8269394;28;20631;-70
2023/10/29 16:13:49;;;;;;;51.90;33.40;;;;;14.70;94970.00;;;;8268642;28;20195;-70
2023/10/29 16:17:53;;;;;;;21.88;14.07;;;;;14.60;94987.00;;;;8267747;28;20286;-70
2023/10/29 16:21:56;;;;;;;12.75;6.95;;;;;14.40;94990.00;;;;8268122;28;20245;-70
2023/10/29 16:25:59;;;;;;;16.75;11.80;;;;;14.30;94988.00;;;;8268846;28;20648;-71
2023/10/29 16:30:04;;;;;;;16.23;13.48;;;;;14.10;94970.00;;;;8268116;28;20199;-70
2023/10/29 16:34:07;;;;;;;7.88;7.18;;;;;14.00;94974.00;;;;8269099;28;20190;-70
2023/10/29 16:38:11;;;;;;;26.55;23.85;;;;;14.00;94987.00;;;;8267907;28;20201;-70
2023/10/29 16:42:14;;;;;;;6.50;5.38;;;;;13.90;94991.00;;;;8267908;28;20229;-69
2023/10/29 16:46:18;;;;;;;6.13;3.75;;;;;13.90;94998.00;;;;8267827;28;20264;-70
2023/10/29 16:50:21;;;;;;;5.00;3.58;;;;;13.90;95010.00;;;;8268607;28;20206;-71
2023/10/29 16:54:25;;;;;;;5.43;3.08;;;;;13.80;95010.00;;;;8267680;28;20513;-69
2023/10/29 16:58:31;;;;;;;2.83;2.35;;;;;13.80;95014.00;;;;8266034;28;20245;-69
2023/10/29 17:02:36;;;;;;;6.03;3.63;;;;;13.70;95016.00;;;;8264627;28;20231;-70
2023/10/29 17:06:39;;;;;;;3.95;2.65;;;;;13.60;95029.00;;;;8266762;28;20248;-71
2023/10/29 17:10:42;;;;;;;3.47;2.63;;;;;13.50;95036.00;;;;8266934;28;20199;-71
2023/10/29 17:14:45;;;;;;;2.55;2.35;;;;;13.40;95043.00;;;;8267409;28;20695;-70
2023/10/29 17:18:50;;;;;;;5.88;2.80;;;;;13.30;95038.00;;;;8267353;28;20611;-71
2023/10/29 17:22:53;;;;;;;7.60;4.30;;;;;13.20;95046.00;;;;8266200;28;20309;-70
2023/10/29 17:26:57;;;;;;;4.47;3.45;;;;;13.20;95039.00;;;;8267073;28;20721;-69
2023/10/29 17:31:04;;;;;;;5.93;3.35;;;;;13.10;95038.00;;;;8266650;28;20218;-70
2023/10/29 17:35:09;;;;;;;3.45;3.15;;;;;13.10;95037.00;;;;8266506;28;20195;-70
2023/10/29 17:39:14;;;;;;;5.45;3.58;;;;;13.10;95040.00;;;;8266103;28;20285;-71
2023/10/29 17:43:20;;;;;;;7.03;3.08;;;;;13.10;95039.00;;;;8267029;28;20222;-71
2023/10/29 17:47:24;;;;;;;4.45;2.50;;;;;13.20;95029.00;;;;8266202;28;20241;-70
2023/10/29 17:51:28;;;;;;;5.95;4.38;;;;;13.20;95027.00;;;;8266862;28;20616;-70
2023/10/29 17:55:31;;;;;;;34.92;27.90;;;;;13.20;95032.00;;;;8266403;28;20205;-70
2023/10/29 17:59:34;;;;;;;5.00;4.53;;;;;13.30;95043.00;;;;8266474;28;20225;-70
2023/10/29 18:03:43;;;;;;;3.47;2.80;;;;;13.30;95054.00;;;;8266430;28;20235;-70
2023/10/29 18:07:49;;;;;;;4.63;3.00;;;;;13.40;95060.00;;;;8266680;28;20203;-70
2023/10/29 18:11:53;;;;;;;5.50;2.55;;;;;13.50;95061.00;;;;8266225;28;20194;-70
2023/10/29 18:15:56;;;;;;;3.00;2.58;;;;;13.50;95074.00;;;;8266116;28;20282;-72
2023/10/29 18:19:59;;;;;;;3.40;2.50;;;;;13.60;95068.00;;;;8265629;28;20199;-69
2023/10/29 18:24:05;;;;;;;2.95;2.42;;;;;13.60;95078.00;;;;8266079;28;20227;-71
2023/10/29 18:28:08;;;;;;;3.75;2.30;;;;;13.60;95076.00;;;;8264930;28;20257;-70
2023/10/29 18:32:11;;;;;;;3.70;2.33;;;;;13.60;95075.00;;;;8266240;28;20688;-71
2023/10/29 18:36:14;;;;;;;2.53;2.33;;;;;13.50;95082.00;;;;8265672;28;20605;-71
2023/10/29 18:40:19;;;;;;;5.97;2.80;;;;;13.40;95086.00;;;;8266164;28;20190;-71
2023/10/29 18:44:30;;;;;;;10.13;4.75;;;;;13.30;95084.00;;;;8270243;28;20268;-71
2023/10/29 18:48:33;;;;;;;4.82;2.72;;;;;13.20;95095.00;;;;8271581;28;20700;-71
2023/10/29 18:52:37;;;;;;;36.30;14.07;;;;;13.20;95094.00;;;;8271115;28;20731;-71
2023/10/29 18:56:43;;;;;;;6.75;4.05;;;;;13.10;95097.00;;;;8271310;28;20194;-71
2023/10/29 19:00:46;;;;;;;3.80;2.88;;;;;13.00;95127.00;;;;8271065;28;20198;-71
2023/10/29 19:04:49;;;;;;;6.78;3.15;;;;;13.00;95140.00;;;;8271585;28;20551;-71
2023/10/29 19:08:53;;;;;;;6.20;3.15;;;;;13.10;95148.00;;;;8271596;28;20238;-69
2023/10/29 19:12:57;;;;;;;7.93;4.43;;;;;13.10;95153.00;;;;8270897;28;20202;-69
2023/10/29 19:17:02;;;;;;;4.30;3.90;;;;;13.10;95160.00;;;;8270826;28;20203;-71
2023/10/29 19:21:09;;;;;;;5.05;3.85;;;;;13.10;95169.00;;;;8270570;28;20659;-71
2023/10/29 19:25:12;;;;;;;4.55;3.88;;;;;13.10;95185.00;;;;8270949;28;20652;-71
2023/10/29 19:29:17;;;;;;;10.95;4.50;;;;;13.10;95188.00;;;;8270105;28;20199;-71
2023/10/29 19:33:20;;;;;;;17.20;7.55;;;;;13.10;95177.00;;;;8267783;28;20643;-71
2023/10/29 19:37:23;;;;;;;26.73;12.35;;;;;13.10;95171.00;;;;8269670;28;20589;-71
2023/10/29 19:41:26;;;;;;;11.75;6.10;;;;;13.10;95167.00;;;;8270507;28;20648;-70
2023/10/29 19:45:31;;;;;;;6.28;4.50;;;;;13.10;95155.00;;;;8269232;28;20309;-70
2023/10/29 19:49:34;;;;;;;8.05;5.22;;;;;13.10;95165.00;;;;8270116;28;20198;-70
2023/10/29 19:53:38;;;;;;;9.77;4.88;;;;;13.10;95179.00;;;;8268096;28;20290;-71
2023/10/29 19:57:41;;;;;;;7.82;4.43;;;;;13.10;95182.00;;;;8268968;28;20227;-71
2023/10/29 20:01:45;;;;;;;6.38;4.28;;;;;13.20;95185.00;;;;8269393;28;20226;-71
2023/10/29 20:05:51;;;;;;;5.53;4.20;;;;;13.20;95195.00;;;;8269249;28;20229;-71
2023/10/29 20:09:54;;;;;;;7.75;5.05;;;;;13.10;95190.00;;;;8269286;28;20285;-71
2023/10/29 20:13:59;;;;;;;9.95;4.68;;;;;13.10;95194.00;;;;8269471;28;20632;-71
2023/10/29 20:18:04;;;;;;;5.70;4.13;;;;;13.10;95201.00;;;;8268578;28;20237;-72
2023/10/29 20:22:07;;;;;;;10.05;4.65;;;;;13.10;95217.00;;;;8269530;28;20654;-71
2023/10/29 20:26:13;;;;;;;7.18;4.15;;;;;13.00;95230.00;;;;8268223;28;20620;-71